AFL1504 UUEE-USTR
Flight info
| Callsign | AFL1504 |
|---|---|
| Flight time | 2h 17m |
| Altitude | 35000 |
| Route | K0842F350 OLMUN3J OLMUN T629 IPSIL T830 LAMGU N604 OGSIN P983 GINPA GINPA1F |
| Aircraft | B738/M-SADIE2E3FGHJ1RWY/LB1U1 |
Departure
| Time | 2026-04-22 09:35 |
|---|---|
| Airport | Sheremetyevo International Airport (UUEE) |
Arrival
| Time | 2026-04-22 11:52 |
|---|---|
| Airport | Roshchino International Airport (USTR) |
| Time | Latitude | Longitude | Altitude | Speed | Heading |
|---|---|---|---|---|---|
| 2026-04-22 09:15 | 55.97811 | 37.40320 | 640 ft | 0 kts | 345° |
| 2026-04-22 09:24 | 55.97819 | 37.40316 | 638 ft | 3 kts | 345° |
| 2026-04-22 09:25 | 55.97840 | 37.40286 | 638 ft | 5 kts | 296° |
| 2026-04-22 09:25 | 55.97838 | 37.40216 | 641 ft | 7 kts | 256° |
| 2026-04-22 09:25 | 55.97826 | 37.40127 | 640 ft | 8 kts | 257° |
| 2026-04-22 09:25 | 55.97810 | 37.40022 | 638 ft | 9 kts | 254° |
| 2026-04-22 09:26 | 55.97791 | 37.39900 | 640 ft | 11 kts | 255° |
| 2026-04-22 09:26 | 55.97771 | 37.39763 | 641 ft | 12 kts | 255° |
| 2026-04-22 09:26 | 55.97737 | 37.39688 | 638 ft | 8 kts | 187° |
| 2026-04-22 09:26 | 55.97682 | 37.39707 | 638 ft | 8 kts | 165° |
| 2026-04-22 09:27 | 55.97629 | 37.39732 | 641 ft | 8 kts | 165° |
| 2026-04-22 09:27 | 55.97577 | 37.39756 | 642 ft | 8 kts | 165° |
| 2026-04-22 09:27 | 55.97527 | 37.39780 | 640 ft | 7 kts | 165° |
| 2026-04-22 09:27 | 55.97479 | 37.39804 | 638 ft | 7 kts | 162° |
| 2026-04-22 09:28 | 55.97433 | 37.39831 | 640 ft | 7 kts | 162° |
| 2026-04-22 09:28 | 55.97387 | 37.39853 | 638 ft | 7 kts | 166° |
| 2026-04-22 09:28 | 55.97350 | 37.39896 | 638 ft | 7 kts | 116° |
| 2026-04-22 09:28 | 55.97354 | 37.39977 | 640 ft | 7 kts | 75° |
| 2026-04-22 09:29 | 55.97366 | 37.40058 | 641 ft | 7 kts | 75° |
| 2026-04-22 09:29 | 55.97381 | 37.40159 | 638 ft | 10 kts | 75° |
| 2026-04-22 09:29 | 55.97401 | 37.40293 | 643 ft | 13 kts | 75° |
| 2026-04-22 09:29 | 55.97426 | 37.40461 | 640 ft | 15 kts | 75° |
| 2026-04-22 09:30 | 55.97455 | 37.40654 | 638 ft | 17 kts | 75° |
| 2026-04-22 09:30 | 55.97486 | 37.40859 | 639 ft | 17 kts | 75° |
| 2026-04-22 09:30 | 55.97518 | 37.41070 | 646 ft | 18 kts | 75° |
| 2026-04-22 09:30 | 55.97549 | 37.41279 | 645 ft | 17 kts | 75° |
| 2026-04-22 09:31 | 55.97579 | 37.41481 | 642 ft | 17 kts | 75° |
| 2026-04-22 09:31 | 55.97608 | 37.41675 | 644 ft | 16 kts | 75° |
| 2026-04-22 09:31 | 55.97636 | 37.41862 | 644 ft | 15 kts | 75° |
| 2026-04-22 09:31 | 55.97664 | 37.42041 | 645 ft | 15 kts | 75° |
| 2026-04-22 09:32 | 55.97689 | 37.42214 | 638 ft | 14 kts | 75° |
| 2026-04-22 09:32 | 55.97713 | 37.42378 | 641 ft | 13 kts | 75° |
| 2026-04-22 09:32 | 55.97737 | 37.42532 | 643 ft | 13 kts | 75° |
| 2026-04-22 09:32 | 55.97760 | 37.42685 | 641 ft | 12 kts | 75° |
| 2026-04-22 09:33 | 55.97744 | 37.42784 | 638 ft | 9 kts | 147° |
| 2026-04-22 09:33 | 55.97685 | 37.42818 | 637 ft | 9 kts | 165° |
| 2026-04-22 09:33 | 55.97627 | 37.42840 | 640 ft | 8 kts | 185° |
| 2026-04-22 09:33 | 55.97594 | 37.42761 | 638 ft | 8 kts | 255° |
| 2026-04-22 09:34 | 55.97556 | 37.42506 | 639 ft | 51 kts | 255° |
| 2026-04-22 09:34 | 55.97400 | 37.41482 | 645 ft | 117 kts | 255° |
| 2026-04-22 09:34 | 55.97168 | 37.39750 | 723 ft | 163 kts | 260° |
| 2026-04-22 09:35 | 55.96573 | 37.35788 | 2248 ft | 167 kts | 256° |
| 2026-04-22 09:35 | 55.96259 | 37.33833 | 3129 ft | 165 kts | 255° |
| 2026-04-22 09:35 | 55.95932 | 37.31820 | 3897 ft | 167 kts | 257° |
| 2026-04-22 09:35 | 55.95616 | 37.29691 | 4375 ft | 192 kts | 256° |
| 2026-04-22 09:36 | 55.95230 | 37.27260 | 4606 ft | 217 kts | 256° |
| 2026-04-22 09:36 | 55.94780 | 37.24558 | 4884 ft | 236 kts | 253° |
| 2026-04-22 09:36 | 55.94276 | 37.21605 | 5216 ft | 259 kts | 255° |
| 2026-04-22 09:36 | 55.93761 | 37.18473 | 6101 ft | 262 kts | 256° |
| 2026-04-22 09:37 | 55.93275 | 37.15319 | 6958 ft | 267 kts | 257° |
| 2026-04-22 09:37 | 55.92780 | 37.12078 | 7710 ft | 274 kts | 256° |
| 2026-04-22 09:37 | 55.92266 | 37.08777 | 8561 ft | 278 kts | 256° |
| 2026-04-22 09:37 | 55.91742 | 37.05425 | 9363 ft | 284 kts | 259° |
| 2026-04-22 09:38 | 55.91600 | 37.03116 | 9843 ft | 284 kts | 277° |
| 2026-04-22 09:38 | 55.92224 | 36.99848 | 10607 ft | 279 kts | 306° |
| 2026-04-22 09:38 | 55.93551 | 36.97366 | 11413 ft | 278 kts | 325° |
| 2026-04-22 09:38 | 55.95169 | 36.95340 | 11823 ft | 295 kts | 327° |
| 2026-04-22 09:39 | 55.96956 | 36.93263 | 12021 ft | 317 kts | 334° |
| 2026-04-22 09:39 | 55.99133 | 36.92276 | 12197 ft | 336 kts | 2° |
| 2026-04-22 09:39 | 56.01461 | 36.93150 | 12745 ft | 346 kts | 17° |
| 2026-04-22 09:39 | 56.03661 | 36.94963 | 13445 ft | 352 kts | 31° |
| 2026-04-22 09:40 | 56.05705 | 36.97413 | 14151 ft | 355 kts | 33° |
| 2026-04-22 09:40 | 56.07739 | 36.99922 | 14900 ft | 356 kts | 34° |
| 2026-04-22 09:40 | 56.09499 | 37.03076 | 15553 ft | 364 kts | 54° |
| 2026-04-22 09:40 | 56.10513 | 37.07254 | 16240 ft | 372 kts | 73° |
| 2026-04-22 09:41 | 56.10770 | 37.11904 | 16902 ft | 382 kts | 91° |
| 2026-04-22 09:41 | 56.10258 | 37.16547 | 17551 ft | 390 kts | 100° |
| 2026-04-22 09:41 | 56.09551 | 37.21254 | 18157 ft | 395 kts | 101° |
| 2026-04-22 09:41 | 56.08799 | 37.26007 | 18691 ft | 399 kts | 102° |
| 2026-04-22 09:42 | 56.08033 | 37.30802 | 19219 ft | 402 kts | 102° |
| 2026-04-22 09:42 | 56.07275 | 37.35592 | 19758 ft | 404 kts | 102° |
| 2026-04-22 09:42 | 56.06514 | 37.40440 | 20327 ft | 407 kts | 102° |
| 2026-04-22 09:42 | 56.05754 | 37.45338 | 20847 ft | 409 kts | 101° |
| 2026-04-22 09:43 | 56.04992 | 37.50262 | 21378 ft | 412 kts | 101° |
| 2026-04-22 09:43 | 56.04228 | 37.55209 | 21894 ft | 415 kts | 101° |
| 2026-04-22 09:43 | 56.03458 | 37.60194 | 22390 ft | 418 kts | 101° |
| 2026-04-22 09:43 | 56.02680 | 37.65220 | 22894 ft | 420 kts | 101° |
| 2026-04-22 09:44 | 56.01896 | 37.70275 | 23348 ft | 424 kts | 101° |
| 2026-04-22 09:44 | 56.01101 | 37.75378 | 23708 ft | 427 kts | 101° |
| 2026-04-22 09:44 | 56.00300 | 37.80501 | 24136 ft | 429 kts | 101° |
| 2026-04-22 09:44 | 55.99495 | 37.85628 | 24609 ft | 429 kts | 101° |
| 2026-04-22 09:45 | 55.98686 | 37.90764 | 25011 ft | 430 kts | 101° |
| 2026-04-22 09:45 | 55.97874 | 37.95918 | 25360 ft | 433 kts | 101° |
| 2026-04-22 09:45 | 55.97052 | 38.01112 | 25708 ft | 436 kts | 101° |
| 2026-04-22 09:45 | 55.96225 | 38.06326 | 26069 ft | 438 kts | 101° |
| 2026-04-22 09:46 | 55.95390 | 38.11566 | 26430 ft | 440 kts | 101° |
| 2026-04-22 09:46 | 55.94550 | 38.16826 | 26772 ft | 442 kts | 101° |
| 2026-04-22 09:46 | 55.93703 | 38.22113 | 27098 ft | 444 kts | 101° |
| 2026-04-22 09:46 | 55.92851 | 38.27414 | 27431 ft | 446 kts | 101° |
| 2026-04-22 09:47 | 55.92004 | 38.32665 | 27751 ft | 448 kts | 101° |
| 2026-04-22 09:47 | 55.91129 | 38.38074 | 28093 ft | 450 kts | 100° |
| 2026-04-22 09:47 | 55.90272 | 38.43356 | 28487 ft | 449 kts | 100° |
| 2026-04-22 09:47 | 55.89401 | 38.48707 | 28847 ft | 450 kts | 100° |
| 2026-04-22 09:48 | 55.88529 | 38.54055 | 29261 ft | 449 kts | 100° |
| 2026-04-22 09:48 | 55.87657 | 38.59380 | 29723 ft | 447 kts | 100° |
| 2026-04-22 09:48 | 55.86815 | 38.64689 | 30111 ft | 443 kts | 96° |
| 2026-04-22 09:48 | 55.86477 | 38.70060 | 30364 ft | 433 kts | 83° |
| 2026-04-22 09:49 | 55.86756 | 38.75356 | 30636 ft | 427 kts | 74° |
| 2026-04-22 09:49 | 55.87551 | 38.80393 | 30912 ft | 421 kts | 64° |
| 2026-04-22 09:49 | 55.88650 | 38.85229 | 31202 ft | 421 kts | 64° |
| 2026-04-22 09:49 | 55.89761 | 38.90051 | 31449 ft | 422 kts | 64° |
| 2026-04-22 09:50 | 55.90875 | 38.94901 | 31697 ft | 423 kts | 64° |
| 2026-04-22 09:50 | 55.91987 | 38.99781 | 31868 ft | 426 kts | 64° |
| 2026-04-22 09:50 | 55.93093 | 39.04684 | 32146 ft | 426 kts | 65° |
| 2026-04-22 09:50 | 55.94192 | 39.09598 | 32464 ft | 426 kts | 65° |
| 2026-04-22 09:51 | 55.95284 | 39.14509 | 32736 ft | 426 kts | 65° |
| 2026-04-22 09:51 | 55.96375 | 39.19441 | 32977 ft | 428 kts | 66° |
| 2026-04-22 09:51 | 55.97465 | 39.24384 | 33196 ft | 429 kts | 66° |
| 2026-04-22 09:51 | 55.98558 | 39.29352 | 33446 ft | 429 kts | 66° |
| 2026-04-22 09:52 | 55.99645 | 39.34310 | 33693 ft | 430 kts | 66° |
| 2026-04-22 09:52 | 56.00737 | 39.39299 | 33886 ft | 431 kts | 66° |
| 2026-04-22 09:52 | 56.01830 | 39.44300 | 34045 ft | 433 kts | 66° |
| 2026-04-22 09:52 | 56.02921 | 39.49309 | 34237 ft | 433 kts | 66° |
| 2026-04-22 09:53 | 56.04016 | 39.54348 | 34377 ft | 436 kts | 66° |
| 2026-04-22 09:53 | 56.05112 | 39.59404 | 34535 ft | 437 kts | 66° |
| 2026-04-22 09:53 | 56.06209 | 39.64475 | 34741 ft | 437 kts | 66° |
| 2026-04-22 09:53 | 56.07306 | 39.69560 | 34748 ft | 440 kts | 67° |
| 2026-04-22 09:54 | 56.09504 | 39.79785 | 34755 ft | 438 kts | 67° |
| 2026-04-22 09:54 | 56.09857 | 39.81437 | 34757 ft | 437 kts | 67° |
| 2026-04-22 09:55 | 56.11264 | 39.88019 | 34755 ft | 435 kts | 67° |
| 2026-04-22 09:56 | 56.12532 | 39.93967 | 34761 ft | 434 kts | 67° |
| 2026-04-22 09:56 | 56.14585 | 40.03634 | 34764 ft | 432 kts | 67° |
| 2026-04-22 09:57 | 56.16697 | 40.13621 | 34769 ft | 432 kts | 67° |
| 2026-04-22 09:57 | 56.18820 | 40.23710 | 34769 ft | 432 kts | 67° |
| 2026-04-22 09:58 | 56.20939 | 40.33832 | 34775 ft | 434 kts | 67° |
| 2026-04-22 09:58 | 56.23061 | 40.44022 | 34781 ft | 437 kts | 67° |
| 2026-04-22 09:59 | 56.25192 | 40.54306 | 34775 ft | 440 kts | 68° |
| 2026-04-22 09:59 | 56.27328 | 40.64665 | 34779 ft | 443 kts | 68° |
| 2026-04-22 10:00 | 56.29469 | 40.75109 | 34766 ft | 446 kts | 68° |
| 2026-04-22 10:00 | 56.31609 | 40.85599 | 34769 ft | 447 kts | 68° |
| 2026-04-22 10:01 | 56.33745 | 40.96125 | 34760 ft | 447 kts | 68° |
| 2026-04-22 10:01 | 56.35872 | 41.06664 | 34759 ft | 447 kts | 68° |
| 2026-04-22 10:02 | 56.37626 | 41.15401 | 34756 ft | 446 kts | 68° |
| 2026-04-22 10:02 | 56.38828 | 41.21408 | 34754 ft | 445 kts | 68° |
| 2026-04-22 10:03 | 56.40899 | 41.31800 | 34754 ft | 444 kts | 68° |
| 2026-04-22 10:03 | 56.42977 | 41.42284 | 34748 ft | 443 kts | 68° |
| 2026-04-22 10:04 | 56.45043 | 41.52761 | 34752 ft | 442 kts | 68° |
| 2026-04-22 10:04 | 56.47095 | 41.63223 | 34757 ft | 442 kts | 69° |
| 2026-04-22 10:05 | 56.49143 | 41.73720 | 34753 ft | 443 kts | 69° |
| 2026-04-22 10:05 | 56.51185 | 41.84245 | 34748 ft | 445 kts | 69° |
| 2026-04-22 10:06 | 56.53231 | 41.94848 | 34749 ft | 447 kts | 69° |
| 2026-04-22 10:06 | 56.55275 | 42.05500 | 34740 ft | 449 kts | 69° |
| 2026-04-22 10:07 | 56.57317 | 42.16199 | 34741 ft | 450 kts | 69° |
| 2026-04-22 10:07 | 56.59357 | 42.26950 | 34739 ft | 452 kts | 69° |
| 2026-04-22 10:08 | 56.61381 | 42.37675 | 34733 ft | 452 kts | 69° |
| 2026-04-22 10:08 | 56.63409 | 42.48489 | 34733 ft | 453 kts | 69° |
| 2026-04-22 10:09 | 56.65429 | 42.59313 | 34734 ft | 452 kts | 69° |
| 2026-04-22 10:09 | 56.67429 | 42.70098 | 34733 ft | 452 kts | 70° |
| 2026-04-22 10:10 | 56.69425 | 42.80920 | 34728 ft | 451 kts | 70° |
| 2026-04-22 10:10 | 56.71411 | 42.91752 | 34724 ft | 451 kts | 70° |
| 2026-04-22 10:11 | 56.73386 | 43.02581 | 34735 ft | 451 kts | 70° |
| 2026-04-22 10:11 | 56.75354 | 43.13442 | 34734 ft | 451 kts | 70° |
| 2026-04-22 10:12 | 56.77313 | 43.24313 | 34731 ft | 452 kts | 70° |
| 2026-04-22 10:12 | 56.79266 | 43.35212 | 34725 ft | 453 kts | 70° |
| 2026-04-22 10:13 | 56.81213 | 43.46147 | 34728 ft | 454 kts | 70° |
| 2026-04-22 10:13 | 56.83155 | 43.57115 | 34726 ft | 454 kts | 70° |
| 2026-04-22 10:14 | 56.85089 | 43.68106 | 34728 ft | 455 kts | 71° |
| 2026-04-22 10:14 | 56.86996 | 43.79009 | 34724 ft | 455 kts | 71° |
| 2026-04-22 10:15 | 56.88913 | 43.90038 | 34723 ft | 455 kts | 71° |
| 2026-04-22 10:15 | 56.90805 | 44.00990 | 34726 ft | 455 kts | 71° |
| 2026-04-22 10:16 | 56.92702 | 44.12033 | 34735 ft | 455 kts | 71° |
| 2026-04-22 10:16 | 56.94591 | 44.23099 | 34732 ft | 455 kts | 71° |
| 2026-04-22 10:17 | 56.96471 | 44.34183 | 34734 ft | 456 kts | 71° |
| 2026-04-22 10:17 | 56.98344 | 44.45289 | 34731 ft | 456 kts | 71° |
| 2026-04-22 10:18 | 57.00208 | 44.56422 | 34724 ft | 457 kts | 71° |
| 2026-04-22 10:18 | 57.02068 | 44.67592 | 34731 ft | 458 kts | 71° |
| 2026-04-22 10:19 | 57.03918 | 44.78780 | 34725 ft | 458 kts | 71° |
| 2026-04-22 10:19 | 57.05759 | 44.89978 | 34719 ft | 458 kts | 72° |
| 2026-04-22 10:20 | 57.07593 | 45.01213 | 34717 ft | 459 kts | 72° |
| 2026-04-22 10:20 | 57.09417 | 45.12454 | 34727 ft | 459 kts | 72° |
| 2026-04-22 10:21 | 57.11234 | 45.23724 | 34718 ft | 460 kts | 72° |
| 2026-04-22 10:21 | 57.13040 | 45.35005 | 34730 ft | 460 kts | 72° |
| 2026-04-22 10:22 | 57.14837 | 45.46298 | 34724 ft | 460 kts | 72° |
| 2026-04-22 10:22 | 57.16624 | 45.57608 | 34723 ft | 460 kts | 72° |
| 2026-04-22 10:23 | 57.18402 | 45.68933 | 34716 ft | 460 kts | 72° |
| 2026-04-22 10:23 | 57.20159 | 45.80200 | 34718 ft | 460 kts | 72° |
| 2026-04-22 10:24 | 57.21929 | 45.91627 | 34715 ft | 460 kts | 73° |
| 2026-04-22 10:24 | 57.23675 | 46.02985 | 34715 ft | 460 kts | 73° |
| 2026-04-22 10:25 | 57.25412 | 46.14358 | 34718 ft | 461 kts | 73° |
| 2026-04-22 10:25 | 57.27143 | 46.25761 | 34708 ft | 461 kts | 73° |
| 2026-04-22 10:26 | 57.28863 | 46.37172 | 34708 ft | 461 kts | 73° |
| 2026-04-22 10:26 | 57.30562 | 46.48528 | 34708 ft | 461 kts | 73° |
| 2026-04-22 10:27 | 57.32263 | 46.59975 | 34709 ft | 461 kts | 73° |
| 2026-04-22 10:27 | 57.33954 | 46.71419 | 34715 ft | 461 kts | 73° |
| 2026-04-22 10:28 | 57.35366 | 46.83003 | 34711 ft | 463 kts | 81° |
| 2026-04-22 10:28 | 57.36170 | 46.94844 | 34698 ft | 464 kts | 82° |
| 2026-04-22 10:29 | 57.36899 | 47.06731 | 34703 ft | 464 kts | 82° |
| 2026-04-22 10:29 | 57.37663 | 47.18624 | 34701 ft | 465 kts | 82° |
| 2026-04-22 10:30 | 57.38449 | 47.30526 | 34699 ft | 466 kts | 82° |
| 2026-04-22 10:30 | 57.39104 | 47.40425 | 34701 ft | 466 kts | 82° |
| 2026-04-22 10:31 | 57.39884 | 47.52362 | 34693 ft | 467 kts | 82° |
| 2026-04-22 10:31 | 57.40652 | 47.64319 | 34694 ft | 467 kts | 82° |
| 2026-04-22 10:32 | 57.41409 | 47.76289 | 34696 ft | 467 kts | 82° |
| 2026-04-22 10:32 | 57.42154 | 47.88271 | 34694 ft | 468 kts | 83° |
| 2026-04-22 10:33 | 57.42888 | 48.00260 | 34701 ft | 468 kts | 83° |
| 2026-04-22 10:33 | 57.43611 | 48.12267 | 34704 ft | 468 kts | 83° |
| 2026-04-22 10:34 | 57.44324 | 48.24299 | 34698 ft | 469 kts | 83° |
| 2026-04-22 10:34 | 57.45026 | 48.36337 | 34701 ft | 469 kts | 83° |
| 2026-04-22 10:35 | 57.45716 | 48.48375 | 34700 ft | 469 kts | 83° |
| 2026-04-22 10:35 | 57.46395 | 48.60432 | 34702 ft | 469 kts | 83° |
| 2026-04-22 10:36 | 57.47062 | 48.72484 | 34697 ft | 469 kts | 83° |
| 2026-04-22 10:36 | 57.47719 | 48.84550 | 34702 ft | 469 kts | 84° |
| 2026-04-22 10:37 | 57.48682 | 49.02666 | 34712 ft | 470 kts | 84° |
| 2026-04-22 10:38 | 57.49311 | 49.14776 | 34706 ft | 471 kts | 84° |
| 2026-04-22 10:38 | 57.49930 | 49.26914 | 34706 ft | 472 kts | 84° |
| 2026-04-22 10:39 | 57.50539 | 49.39087 | 34700 ft | 473 kts | 84° |
| 2026-04-22 10:39 | 57.51136 | 49.51276 | 34699 ft | 473 kts | 84° |
| 2026-04-22 10:40 | 57.51723 | 49.63476 | 34695 ft | 474 kts | 84° |
| 2026-04-22 10:40 | 57.52298 | 49.75692 | 34695 ft | 474 kts | 85° |
| 2026-04-22 10:41 | 57.52857 | 49.87834 | 34700 ft | 474 kts | 85° |
| 2026-04-22 10:41 | 57.53407 | 50.00039 | 34692 ft | 473 kts | 85° |
| 2026-04-22 10:42 | 57.53950 | 50.12332 | 34699 ft | 473 kts | 85° |
| 2026-04-22 10:42 | 57.54472 | 50.24422 | 34696 ft | 473 kts | 85° |
| 2026-04-22 10:43 | 57.54990 | 50.36712 | 34699 ft | 473 kts | 85° |
| 2026-04-22 10:43 | 57.55493 | 50.48919 | 34697 ft | 473 kts | 85° |
| 2026-04-22 10:44 | 57.55981 | 50.61051 | 34696 ft | 473 kts | 86° |
| 2026-04-22 10:44 | 57.56461 | 50.73268 | 34699 ft | 473 kts | 86° |
| 2026-04-22 10:45 | 57.56928 | 50.85480 | 34696 ft | 473 kts | 86° |
| 2026-04-22 10:45 | 57.57384 | 50.97697 | 34701 ft | 473 kts | 86° |
| 2026-04-22 10:46 | 57.57828 | 51.09930 | 34705 ft | 473 kts | 86° |
| 2026-04-22 10:46 | 57.58261 | 51.22180 | 34705 ft | 474 kts | 86° |
| 2026-04-22 10:47 | 57.58683 | 51.34461 | 34703 ft | 475 kts | 86° |
| 2026-04-22 10:47 | 57.59094 | 51.46761 | 34706 ft | 476 kts | 86° |
| 2026-04-22 10:48 | 57.59494 | 51.59086 | 34703 ft | 477 kts | 87° |
| 2026-04-22 10:48 | 57.59882 | 51.71430 | 34708 ft | 477 kts | 87° |
| 2026-04-22 10:49 | 57.60258 | 51.83790 | 34705 ft | 478 kts | 87° |
| 2026-04-22 10:49 | 57.60623 | 51.96158 | 34708 ft | 478 kts | 87° |
| 2026-04-22 10:50 | 57.60975 | 52.08537 | 34698 ft | 478 kts | 88° |
| 2026-04-22 10:50 | 57.61316 | 52.20921 | 34702 ft | 478 kts | 88° |
| 2026-04-22 10:51 | 57.61645 | 52.33319 | 34707 ft | 478 kts | 88° |
| 2026-04-22 10:51 | 57.61962 | 52.45719 | 34706 ft | 479 kts | 88° |
| 2026-04-22 10:52 | 57.62266 | 52.58125 | 34700 ft | 479 kts | 88° |
| 2026-04-22 10:52 | 57.62559 | 52.70554 | 34710 ft | 479 kts | 88° |
| 2026-04-22 10:53 | 57.62840 | 52.82990 | 34704 ft | 480 kts | 88° |
| 2026-04-22 10:53 | 57.63107 | 52.95348 | 34704 ft | 480 kts | 88° |
| 2026-04-22 10:54 | 57.63364 | 53.07797 | 34696 ft | 480 kts | 89° |
| 2026-04-22 10:54 | 57.63608 | 53.20235 | 34706 ft | 480 kts | 89° |
| 2026-04-22 10:55 | 57.63840 | 53.32695 | 34705 ft | 480 kts | 89° |
| 2026-04-22 10:55 | 57.64061 | 53.45163 | 34700 ft | 481 kts | 89° |
| 2026-04-22 10:56 | 57.64269 | 53.57637 | 34709 ft | 481 kts | 89° |
| 2026-04-22 10:56 | 57.64465 | 53.70119 | 34701 ft | 481 kts | 89° |
| 2026-04-22 10:57 | 57.64648 | 53.82597 | 34703 ft | 481 kts | 89° |
| 2026-04-22 10:57 | 57.64820 | 53.95099 | 34696 ft | 482 kts | 89° |
| 2026-04-22 10:58 | 57.64979 | 54.07602 | 34699 ft | 482 kts | 90° |
| 2026-04-22 10:58 | 57.65126 | 54.20104 | 34684 ft | 482 kts | 90° |
| 2026-04-22 10:59 | 57.65261 | 54.32609 | 34694 ft | 482 kts | 90° |
| 2026-04-22 10:59 | 57.65383 | 54.45122 | 34699 ft | 482 kts | 90° |
| 2026-04-22 11:00 | 57.65493 | 54.57643 | 34689 ft | 482 kts | 90° |
| 2026-04-22 11:00 | 57.65590 | 54.70175 | 34696 ft | 483 kts | 90° |
| 2026-04-22 11:01 | 57.65675 | 54.82636 | 34694 ft | 483 kts | 90° |
| 2026-04-22 11:01 | 57.65748 | 54.95188 | 34689 ft | 484 kts | 91° |
| 2026-04-22 11:02 | 57.65809 | 55.07748 | 34687 ft | 484 kts | 91° |
| 2026-04-22 11:02 | 57.65857 | 55.20305 | 34684 ft | 484 kts | 91° |
| 2026-04-22 11:03 | 57.65893 | 55.32856 | 34679 ft | 483 kts | 91° |
| 2026-04-22 11:03 | 57.65917 | 55.45420 | 34681 ft | 484 kts | 91° |
| 2026-04-22 11:04 | 57.65927 | 55.57990 | 34679 ft | 484 kts | 91° |
| 2026-04-22 11:04 | 57.65926 | 55.70582 | 34675 ft | 485 kts | 91° |
| 2026-04-22 11:05 | 57.65912 | 55.83173 | 34679 ft | 485 kts | 91° |
| 2026-04-22 11:05 | 57.65885 | 55.95778 | 34668 ft | 486 kts | 92° |
| 2026-04-22 11:06 | 57.65846 | 56.08391 | 34670 ft | 486 kts | 92° |
| 2026-04-22 11:06 | 57.65794 | 56.20996 | 34669 ft | 486 kts | 92° |
| 2026-04-22 11:07 | 57.65730 | 56.33623 | 34667 ft | 486 kts | 92° |
| 2026-04-22 11:07 | 57.65653 | 56.46186 | 34666 ft | 486 kts | 92° |
| 2026-04-22 11:08 | 57.65564 | 56.58798 | 34671 ft | 486 kts | 92° |
| 2026-04-22 11:08 | 57.65463 | 56.71327 | 34672 ft | 486 kts | 92° |
| 2026-04-22 11:09 | 57.65349 | 56.83945 | 34674 ft | 486 kts | 92° |
| 2026-04-22 11:09 | 57.65222 | 56.96555 | 34670 ft | 486 kts | 92° |
| 2026-04-22 11:10 | 57.65082 | 57.09170 | 34669 ft | 486 kts | 92° |
| 2026-04-22 11:10 | 57.64930 | 57.21782 | 34668 ft | 486 kts | 92° |
| 2026-04-22 11:11 | 57.64766 | 57.34377 | 34654 ft | 486 kts | 93° |
| 2026-04-22 11:11 | 57.64589 | 57.46970 | 34664 ft | 485 kts | 93° |
| 2026-04-22 11:12 | 57.64400 | 57.59553 | 34680 ft | 485 kts | 94° |
| 2026-04-22 11:12 | 57.64198 | 57.72136 | 34682 ft | 485 kts | 94° |
| 2026-04-22 11:13 | 57.63983 | 57.84716 | 34672 ft | 485 kts | 94° |
| 2026-04-22 11:13 | 57.63757 | 57.97305 | 34676 ft | 486 kts | 94° |
| 2026-04-22 11:14 | 57.63517 | 58.09903 | 34675 ft | 486 kts | 94° |
| 2026-04-22 11:14 | 57.63265 | 58.22503 | 34674 ft | 486 kts | 94° |
| 2026-04-22 11:15 | 57.63000 | 58.35085 | 34667 ft | 486 kts | 94° |
| 2026-04-22 11:15 | 57.62723 | 58.47690 | 34666 ft | 486 kts | 95° |
| 2026-04-22 11:16 | 57.62433 | 58.60296 | 34675 ft | 486 kts | 95° |
| 2026-04-22 11:16 | 57.62130 | 58.72896 | 34680 ft | 486 kts | 95° |
| 2026-04-22 11:17 | 57.61815 | 58.85502 | 34681 ft | 487 kts | 95° |
| 2026-04-22 11:17 | 57.61489 | 58.98038 | 34681 ft | 487 kts | 95° |
| 2026-04-22 11:18 | 57.61148 | 59.10654 | 34687 ft | 488 kts | 95° |
| 2026-04-22 11:18 | 57.60794 | 59.23290 | 34692 ft | 488 kts | 95° |
| 2026-04-22 11:19 | 57.60490 | 59.33819 | 34684 ft | 489 kts | 95° |
| 2026-04-22 11:19 | 57.60048 | 59.48591 | 34660 ft | 489 kts | 96° |
| 2026-04-22 11:20 | 57.59723 | 59.59116 | 34684 ft | 489 kts | 96° |
| 2026-04-22 11:20 | 57.59320 | 59.71769 | 34690 ft | 489 kts | 96° |
| 2026-04-22 11:21 | 57.58900 | 59.84524 | 34693 ft | 490 kts | 96° |
| 2026-04-22 11:21 | 57.58474 | 59.97102 | 34702 ft | 490 kts | 96° |
| 2026-04-22 11:22 | 57.58032 | 60.09788 | 34702 ft | 491 kts | 96° |
| 2026-04-22 11:22 | 57.57576 | 60.22494 | 34700 ft | 492 kts | 96° |
| 2026-04-22 11:23 | 57.57107 | 60.35204 | 34707 ft | 492 kts | 96° |
| 2026-04-22 11:23 | 57.56625 | 60.47915 | 34706 ft | 492 kts | 97° |
| 2026-04-22 11:24 | 57.56130 | 60.60636 | 34698 ft | 492 kts | 97° |
| 2026-04-22 11:24 | 57.55622 | 60.73354 | 34701 ft | 492 kts | 97° |
| 2026-04-22 11:25 | 57.55101 | 60.86056 | 34707 ft | 492 kts | 97° |
| 2026-04-22 11:25 | 57.54569 | 60.98723 | 34711 ft | 493 kts | 97° |
| 2026-04-22 11:26 | 57.54023 | 61.11437 | 34709 ft | 493 kts | 97° |
| 2026-04-22 11:26 | 57.53463 | 61.24160 | 34704 ft | 493 kts | 97° |
| 2026-04-22 11:27 | 57.52890 | 61.36877 | 34714 ft | 493 kts | 98° |
| 2026-04-22 11:27 | 57.52597 | 61.43268 | 34372 ft | 499 kts | 98° |
| 2026-04-22 11:27 | 57.52297 | 61.49726 | 33786 ft | 500 kts | 98° |
| 2026-04-22 11:27 | 57.51996 | 61.56158 | 33075 ft | 500 kts | 98° |
| 2026-04-22 11:28 | 57.51691 | 61.62606 | 32404 ft | 499 kts | 98° |
| 2026-04-22 11:28 | 57.51387 | 61.68993 | 31979 ft | 493 kts | 98° |
| 2026-04-22 11:28 | 57.51083 | 61.75316 | 31481 ft | 489 kts | 98° |
| 2026-04-22 11:28 | 57.50778 | 61.81585 | 31019 ft | 485 kts | 98° |
| 2026-04-22 11:29 | 57.50471 | 61.87807 | 30556 ft | 481 kts | 99° |
| 2026-04-22 11:29 | 57.50162 | 61.93984 | 30110 ft | 478 kts | 99° |
| 2026-04-22 11:29 | 57.49853 | 62.00119 | 29627 ft | 475 kts | 99° |
| 2026-04-22 11:29 | 57.49543 | 62.06206 | 29088 ft | 472 kts | 99° |
| 2026-04-22 11:30 | 57.49232 | 62.12255 | 28621 ft | 467 kts | 99° |
| 2026-04-22 11:30 | 57.48923 | 62.18236 | 28162 ft | 463 kts | 99° |
| 2026-04-22 11:30 | 57.48613 | 62.24161 | 27715 ft | 458 kts | 99° |
| 2026-04-22 11:30 | 57.48303 | 62.30038 | 27259 ft | 455 kts | 99° |
| 2026-04-22 11:31 | 57.47993 | 62.35856 | 26814 ft | 451 kts | 99° |
| 2026-04-22 11:31 | 57.47686 | 62.41554 | 26369 ft | 448 kts | 99° |
| 2026-04-22 11:31 | 57.47375 | 62.47289 | 25947 ft | 444 kts | 99° |
| 2026-04-22 11:31 | 57.47064 | 62.52981 | 25511 ft | 442 kts | 99° |
| 2026-04-22 11:32 | 57.46752 | 62.58640 | 25086 ft | 439 kts | 99° |
| 2026-04-22 11:32 | 57.46439 | 62.64262 | 24673 ft | 436 kts | 100° |
| 2026-04-22 11:32 | 57.46126 | 62.69848 | 24196 ft | 434 kts | 100° |
| 2026-04-22 11:32 | 57.45812 | 62.75413 | 23805 ft | 432 kts | 100° |
| 2026-04-22 11:33 | 57.45498 | 62.80928 | 23401 ft | 430 kts | 100° |
| 2026-04-22 11:33 | 57.45181 | 62.86441 | 22943 ft | 428 kts | 100° |
| 2026-04-22 11:33 | 57.44864 | 62.91931 | 22464 ft | 426 kts | 100° |
| 2026-04-22 11:33 | 57.44546 | 62.97381 | 22036 ft | 423 kts | 100° |
| 2026-04-22 11:34 | 57.44230 | 63.02783 | 21627 ft | 420 kts | 100° |
| 2026-04-22 11:34 | 57.43912 | 63.08148 | 21209 ft | 417 kts | 100° |
| 2026-04-22 11:34 | 57.43594 | 63.13490 | 20794 ft | 415 kts | 100° |
| 2026-04-22 11:34 | 57.43276 | 63.18796 | 20389 ft | 412 kts | 100° |
| 2026-04-22 11:35 | 57.42957 | 63.24068 | 19979 ft | 410 kts | 100° |
| 2026-04-22 11:35 | 57.42637 | 63.29321 | 19576 ft | 408 kts | 100° |
| 2026-04-22 11:35 | 57.42318 | 63.34533 | 19201 ft | 406 kts | 100° |
| 2026-04-22 11:35 | 57.41997 | 63.39730 | 18791 ft | 405 kts | 100° |
| 2026-04-22 11:36 | 57.41675 | 63.44914 | 18385 ft | 404 kts | 100° |
| 2026-04-22 11:36 | 57.41351 | 63.50085 | 17980 ft | 403 kts | 99° |
| 2026-04-22 11:36 | 57.41027 | 63.55237 | 17521 ft | 402 kts | 99° |
| 2026-04-22 11:36 | 57.40702 | 63.60377 | 17088 ft | 400 kts | 99° |
| 2026-04-22 11:37 | 57.40378 | 63.65474 | 16667 ft | 398 kts | 99° |
| 2026-04-22 11:37 | 57.40052 | 63.70559 | 16211 ft | 395 kts | 99° |
| 2026-04-22 11:37 | 57.39721 | 63.75584 | 15872 ft | 390 kts | 101° |
| 2026-04-22 11:37 | 57.39198 | 63.80418 | 15508 ft | 384 kts | 108° |
| 2026-04-22 11:38 | 57.38525 | 63.85190 | 15122 ft | 381 kts | 109° |
| 2026-04-22 11:38 | 57.37822 | 63.89898 | 14739 ft | 379 kts | 109° |
| 2026-04-22 11:38 | 57.37246 | 63.99700 | 13630 ft | 388 kts | 90° |
| 2026-04-22 11:39 | 57.37272 | 64.04710 | 13139 ft | 387 kts | 90° |
| 2026-04-22 11:39 | 57.37289 | 64.09679 | 12731 ft | 384 kts | 91° |
| 2026-04-22 11:39 | 57.37296 | 64.14613 | 12298 ft | 382 kts | 91° |
| 2026-04-22 11:39 | 57.37297 | 64.19503 | 11890 ft | 379 kts | 91° |
| 2026-04-22 11:40 | 57.37291 | 64.24294 | 11496 ft | 376 kts | 91° |
| 2026-04-22 11:40 | 57.37281 | 64.29116 | 11099 ft | 373 kts | 92° |
| 2026-04-22 11:40 | 57.37268 | 64.33902 | 10714 ft | 370 kts | 92° |
| 2026-04-22 11:40 | 57.37253 | 64.38656 | 10327 ft | 368 kts | 92° |
| 2026-04-22 11:41 | 57.37237 | 64.43337 | 10166 ft | 358 kts | 92° |
| 2026-04-22 11:41 | 57.37220 | 64.47886 | 10001 ft | 349 kts | 92° |
| 2026-04-22 11:41 | 57.37201 | 64.52321 | 9853 ft | 340 kts | 92° |
| 2026-04-22 11:41 | 57.37182 | 64.56652 | 9699 ft | 332 kts | 92° |
| 2026-04-22 11:42 | 57.37161 | 64.60854 | 9659 ft | 320 kts | 92° |
| 2026-04-22 11:42 | 57.37138 | 64.65022 | 9142 ft | 326 kts | 92° |
| 2026-04-22 11:42 | 57.37113 | 64.69201 | 8816 ft | 324 kts | 92° |
| 2026-04-22 11:42 | 57.37088 | 64.73369 | 8489 ft | 322 kts | 92° |
| 2026-04-22 11:43 | 57.37061 | 64.77491 | 8186 ft | 319 kts | 92° |
| 2026-04-22 11:43 | 57.37034 | 64.81541 | 7895 ft | 316 kts | 92° |
| 2026-04-22 11:43 | 57.37006 | 64.85590 | 7596 ft | 313 kts | 92° |
| 2026-04-22 11:43 | 57.36977 | 64.89609 | 7303 ft | 310 kts | 92° |
| 2026-04-22 11:44 | 57.36947 | 64.93576 | 7016 ft | 305 kts | 92° |
| 2026-04-22 11:44 | 57.36917 | 64.97443 | 6732 ft | 294 kts | 92° |
| 2026-04-22 11:44 | 57.36887 | 65.01162 | 6472 ft | 285 kts | 92° |
| 2026-04-22 11:44 | 57.36856 | 65.04775 | 6209 ft | 276 kts | 92° |
| 2026-04-22 11:45 | 57.36825 | 65.08303 | 5954 ft | 273 kts | 92° |
| 2026-04-22 11:45 | 57.36793 | 65.11819 | 5677 ft | 272 kts | 92° |
| 2026-04-22 11:45 | 57.36760 | 65.15311 | 5403 ft | 270 kts | 92° |
| 2026-04-22 11:45 | 57.36727 | 65.18774 | 5201 ft | 268 kts | 92° |
| 2026-04-22 11:46 | 57.36693 | 65.22251 | 4938 ft | 271 kts | 92° |
| 2026-04-22 11:46 | 57.36659 | 65.25743 | 4677 ft | 271 kts | 92° |
| 2026-04-22 11:46 | 57.36623 | 65.29214 | 4443 ft | 268 kts | 92° |
| 2026-04-22 11:46 | 57.36586 | 65.32642 | 4184 ft | 266 kts | 92° |
| 2026-04-22 11:47 | 57.36547 | 65.36056 | 3917 ft | 267 kts | 92° |
| 2026-04-22 11:47 | 57.36360 | 65.39445 | 3703 ft | 262 kts | 111° |
| 2026-04-22 11:47 | 57.35413 | 65.42185 | 3541 ft | 251 kts | 137° |
| 2026-04-22 11:47 | 57.34164 | 65.44361 | 3489 ft | 241 kts | 142° |
| 2026-04-22 11:48 | 57.32930 | 65.46381 | 3414 ft | 233 kts | 142° |
| 2026-04-22 11:48 | 57.31741 | 65.48334 | 3326 ft | 225 kts | 142° |
| 2026-04-22 11:48 | 57.30580 | 65.50195 | 3143 ft | 218 kts | 149° |
| 2026-04-22 11:48 | 57.29240 | 65.50987 | 3019 ft | 195 kts | 189° |
| 2026-04-22 11:49 | 57.28024 | 65.50226 | 2805 ft | 181 kts | 220° |
| 2026-04-22 11:49 | 57.27149 | 65.48629 | 2632 ft | 177 kts | 227° |
| 2026-04-22 11:49 | 57.26301 | 65.47024 | 2420 ft | 173 kts | 229° |
| 2026-04-22 11:49 | 57.25497 | 65.45440 | 2194 ft | 164 kts | 229° |
| 2026-04-22 11:50 | 57.24764 | 65.43967 | 2010 ft | 152 kts | 230° |
| 2026-04-22 11:50 | 57.24087 | 65.42601 | 1821 ft | 139 kts | 230° |
| 2026-04-22 11:50 | 57.23448 | 65.41308 | 1648 ft | 136 kts | 230° |
| 2026-04-22 11:50 | 57.22811 | 65.40020 | 1492 ft | 138 kts | 229° |
| 2026-04-22 11:51 | 57.22161 | 65.38704 | 1306 ft | 142 kts | 229° |
| 2026-04-22 11:51 | 57.21476 | 65.37363 | 1115 ft | 142 kts | 227° |
| 2026-04-22 11:51 | 57.20799 | 65.36033 | 942 ft | 145 kts | 231° |
| 2026-04-22 11:51 | 57.20136 | 65.34595 | 746 ft | 148 kts | 229° |
| 2026-04-22 11:52 | 57.19436 | 65.33205 | 554 ft | 147 kts | 230° |
| 2026-04-22 11:52 | 57.18762 | 65.31829 | 388 ft | 146 kts | 228° |
| 2026-04-22 11:52 | 57.18129 | 65.30552 | 371 ft | 110 kts | 227° |
| 2026-04-22 11:52 | 57.17761 | 65.29808 | 380 ft | 47 kts | 227° |
| 2026-04-22 11:53 | 57.17624 | 65.29530 | 385 ft | 25 kts | 228° |
| 2026-04-22 11:53 | 57.17543 | 65.29364 | 385 ft | 7 kts | 228° |
| 2026-04-22 11:53 | 57.17500 | 65.29332 | 385 ft | 7 kts | 174° |
| 2026-04-22 11:53 | 57.17462 | 65.29381 | 385 ft | 7 kts | 139° |
| 2026-04-22 11:54 | 57.17424 | 65.29443 | 386 ft | 8 kts | 138° |
| 2026-04-22 11:54 | 57.17376 | 65.29529 | 386 ft | 11 kts | 118° |
| 2026-04-22 11:54 | 57.17410 | 65.29643 | 385 ft | 11 kts | 47° |
| 2026-04-22 11:54 | 57.17461 | 65.29745 | 384 ft | 12 kts | 47° |
| 2026-04-22 11:55 | 57.17527 | 65.29879 | 383 ft | 16 kts | 47° |
| 2026-04-22 11:55 | 57.17609 | 65.30044 | 382 ft | 19 kts | 47° |
| 2026-04-22 11:55 | 57.17707 | 65.30243 | 379 ft | 23 kts | 48° |
| 2026-04-22 11:55 | 57.17818 | 65.30469 | 376 ft | 25 kts | 47° |
| 2026-04-22 11:56 | 57.17937 | 65.30710 | 373 ft | 26 kts | 47° |
| 2026-04-22 11:56 | 57.18064 | 65.30968 | 369 ft | 28 kts | 47° |
| 2026-04-22 11:56 | 57.18199 | 65.31241 | 361 ft | 29 kts | 47° |
| 2026-04-22 11:56 | 57.18337 | 65.31520 | 354 ft | 26 kts | 48° |
| 2026-04-22 11:57 | 57.18445 | 65.31740 | 346 ft | 19 kts | 47° |
| 2026-04-22 11:57 | 57.18460 | 65.31934 | 337 ft | 17 kts | 90° |
| 2026-04-22 11:57 | 57.18462 | 65.32191 | 333 ft | 23 kts | 89° |
| 2026-04-22 11:57 | 57.18468 | 65.32507 | 327 ft | 24 kts | 88° |
| 2026-04-22 11:58 | 57.18473 | 65.32807 | 327 ft | 23 kts | 88° |
| 2026-04-22 11:58 | 57.18477 | 65.33096 | 332 ft | 22 kts | 88° |
| 2026-04-22 11:58 | 57.18448 | 65.33359 | 337 ft | 22 kts | 133° |
| 2026-04-22 11:58 | 57.18344 | 65.33552 | 338 ft | 21 kts | 135° |
| 2026-04-22 11:59 | 57.18242 | 65.33742 | 337 ft | 22 kts | 134° |
| 2026-04-22 11:59 | 57.18135 | 65.33941 | 337 ft | 22 kts | 135° |
| 2026-04-22 11:59 | 57.18025 | 65.34144 | 339 ft | 22 kts | 135° |
| 2026-04-22 11:59 | 57.17923 | 65.34334 | 350 ft | 12 kts | 135° |
| 2026-04-22 12:00 | 57.17885 | 65.34447 | 341 ft | 10 kts | 89° |
| 2026-04-22 12:00 | 57.17925 | 65.34558 | 337 ft | 11 kts | 45° |
| 2026-04-22 12:00 | 57.17978 | 65.34654 | 339 ft | 9 kts | 45° |
| 2026-04-22 12:00 | 57.17994 | 65.34748 | 335 ft | 8 kts | 118° |
| 2026-04-22 12:01 | 57.17974 | 65.34817 | 339 ft | 6 kts | 81° |
| 2026-04-22 12:01 | 57.17999 | 65.34874 | 338 ft | 6 kts | 44° |
| 2026-04-22 12:01 | 57.18019 | 65.34910 | 339 ft | 1 kts | 44° |
| 2026-04-22 12:01 | 57.18019 | 65.34911 | 339 ft | 0 kts | 44° |